Tinduf, Algeria

11:56 PM CET en Febrero 20, 2017 (GMT +0100)
Tindouf | | Change Station

Alt 1414 ft 27.67 °N, 8.13 °W | Updated 56 minutes ago

Despejado
Despejado
55 ° F
Sensación térmica 55 ° F
N
9
Viento Variable Viento desde ONO

Hoy
Alta -- | Baja -- ° F
--% Posibilidad de precipitaciones
Ayer
Alta -- | Baja -- ° F
Precip. -- pul
Presión 29.92 pul
Visibilidad 5.6 Millas
Nubes Baja 4600 ft
Punto de rocío 39 ° F
Humedad 54%
Precipitaciones 0.00 pul
Espesor de la nieve No disponible.
8:05 AM 7:27 PM
Creciente menguante, 30% visible
METAR DAOF 202200Z 29008KT 9000 FEW046 13/04 Q1013
Presión 29.92 pul
Visibilidad 5.6 Millas
Nubes Baja 4600 ft
Punto de rocío 39 ° F
Humedad 54%
Precipitaciones 0.00 pul
Espesor de la nieve No disponible.
8:05 AM 7:27 PM
Creciente menguante, 30% visible
METAR DAOF 202200Z 29008KT 9000 FEW046 13/04 Q1013

Get Your Daily Forecast Email!

Thanks for signing up!

Be on the lookout for a verification email in your inbox.

You'll start receiving the daily forecast at 8 AM.

×

10-Day Weather Forecast

No radar image for this location.
×

Almanac

Astronomía

Feb. 20, 2017 Salida Puesta
Hora real
Crepúsculo civil
Crepúsculo náutico
Crepúsculo astronómico
Luna
Horas de luz
Horas de luz
Tomorrow will be .
, % of the Moon is Illuminated

Extremos de hoy

Máximos del país Bajas del país

Community

WunderPhotos

Upload Photos

1,962,540 ¡fotos cargadas!

WunderBlog® & News

Nearby

Calidad del aire

  Calidad del aire Índice AQ Contaminante
Not available.

Grosos de nieve

Estación Profundido Altura

Actividad de terremotos

Ciudad Distance Mag. Tiempo y dato
Magnitud mínima muestra es 2,5.

Temperaturas de aguas costeras

Lugar Temperatura

Stations

Estaciones meteorológicas cercanas

Ubicación de la estación Temp. Vientos helados Punto de rocío Humedad Viento Precip. Alt Actualizado Tipo